createdAt,value
2023-02-25T00:01:38.892Z,1.67
2023-02-25T00:04:05.798Z,2.13
2023-02-25T00:06:32.660Z,1.83
2023-02-25T00:08:59.588Z,1.83
2023-02-25T00:11:26.632Z,1.50
2023-02-25T00:13:53.907Z,1.88
2023-02-25T00:16:21.586Z,1.90
2023-02-25T00:18:52.873Z,2.08
2023-02-25T00:21:19.783Z,1.73
2023-02-25T00:23:47.854Z,1.92
2023-02-25T00:26:15.295Z,1.90
2023-02-25T00:28:42.359Z,2.00
2023-02-25T00:31:18.132Z,2.17
2023-02-25T00:33:45.235Z,2.00
2023-02-25T00:36:13.744Z,2.00
2023-02-25T00:38:40.790Z,1.80
2023-02-25T00:41:11.800Z,1.80
2023-02-25T00:43:40.164Z,2.13
2023-02-25T00:46:07.107Z,2.03
2023-02-25T00:48:34.068Z,2.08
2023-02-25T00:51:14.238Z,1.92
2023-02-25T00:56:09.115Z,1.85
2023-02-25T00:58:37.259Z,1.52
2023-02-25T01:01:14.990Z,1.60
2023-02-25T01:03:41.882Z,1.95
2023-02-25T01:06:09.321Z,2.30
2023-02-25T01:08:36.457Z,2.00
2023-02-25T01:11:20.976Z,1.98
2023-02-25T01:13:51.004Z,1.88
2023-02-25T01:16:20.721Z,1.52
2023-02-25T01:18:47.979Z,2.08
2023-02-25T01:21:18.008Z,2.15
2023-02-25T01:23:46.901Z,2.00
2023-02-25T01:26:13.989Z,1.70
2023-02-25T01:28:40.979Z,1.83
2023-02-25T01:31:10.930Z,2.13
2023-02-25T01:33:38.673Z,2.10
2023-02-25T01:36:06.625Z,1.73
2023-02-25T01:38:33.966Z,1.98
2023-02-25T01:41:02.182Z,1.90
2023-02-25T01:43:29.201Z,1.50
2023-02-25T01:45:56.657Z,2.05
2023-02-25T01:48:25.588Z,2.75
2023-02-25T01:51:02.990Z,1.58
2023-02-25T01:53:46.279Z,2.13
2023-02-25T01:56:15.084Z,2.15
2023-02-25T01:58:41.951Z,1.70
2023-02-25T02:01:11.037Z,1.75
2023-02-25T02:03:37.946Z,2.10
2023-02-25T02:06:07.842Z,2.10
2023-02-25T02:08:35.096Z,1.83
2023-02-25T02:11:02.956Z,1.77
2023-02-25T02:13:33.072Z,2.28
2023-02-25T02:16:19.591Z,1.73
2023-02-25T02:19:02.875Z,2.08
2023-02-25T02:21:48.245Z,1.98
2023-02-25T02:24:57.159Z,2.05
2023-02-25T02:27:32.659Z,1.83
2023-02-25T02:30:16.236Z,1.90
2023-02-25T02:32:52.274Z,2.15
2023-02-25T02:36:03.719Z,1.70
2023-02-25T02:38:35.626Z,2.00
2023-02-25T02:41:29.243Z,1.92
2023-02-25T02:44:21.749Z,2.20
2023-02-25T02:47:07.212Z,2.00
2023-02-25T02:49:44.915Z,1.95
2023-02-25T02:52:17.044Z,1.98
2023-02-25T02:54:45.410Z,1.90
2023-02-25T02:57:12.676Z,2.20
2023-02-25T02:59:47.712Z,2.55
2023-02-25T03:02:20.170Z,1.42
2023-02-25T03:04:47.924Z,1.95
2023-02-25T03:07:14.954Z,1.70
2023-02-25T03:09:56.982Z,1.90
2023-02-25T03:12:24.482Z,2.20
2023-02-25T03:14:51.367Z,1.70
2023-02-25T03:17:29.484Z,2.00
2023-02-25T03:20:29.822Z,1.80
2023-02-25T03:22:58.621Z,1.60
2023-02-25T03:25:48.724Z,1.77
2023-02-25T03:28:27.491Z,1.65
2023-02-25T03:31:06.674Z,1.98
2023-02-25T03:33:36.592Z,2.25
2023-02-25T03:36:08.518Z,2.00
2023-02-25T03:38:36.881Z,1.80
2023-02-25T03:41:03.838Z,1.95
2023-02-25T03:43:32.949Z,1.70
2023-02-25T03:45:59.938Z,1.70
2023-02-25T03:48:27.478Z,1.48
2023-02-25T03:50:59.337Z,2.60
2023-02-25T03:53:27.505Z,1.73
2023-02-25T03:55:59.105Z,1.50
2023-02-25T03:58:26.070Z,2.05
2023-02-25T04:00:54.763Z,1.40
2023-02-25T04:03:24.542Z,1.50
2023-02-25T04:05:51.528Z,1.45
2023-02-25T04:08:19.698Z,1.40
2023-02-25T04:10:47.130Z,1.50
2023-02-25T04:13:15.798Z,1.80
2023-02-25T04:15:43.121Z,1.75
2023-02-25T04:18:10.095Z,1.67
2023-02-25T04:20:36.996Z,2.08
2023-02-25T04:23:03.886Z,1.70
2023-02-25T04:25:30.784Z,1.55
2023-02-25T04:27:57.864Z,1.25
2023-02-25T04:30:24.860Z,1.30
2023-02-25T04:32:51.886Z,1.77
2023-02-25T04:35:18.855Z,1.30
2023-02-25T04:37:45.749Z,1.55
2023-02-25T04:40:17.802Z,1.40
2023-02-25T04:42:44.764Z,1.60
2023-02-25T04:45:12.092Z,2.10
2023-02-25T04:47:39.067Z,2.10
2023-02-25T04:50:06.545Z,1.70
2023-02-25T04:52:33.447Z,1.83
2023-02-25T04:55:00.324Z,1.92
2023-02-25T04:57:27.199Z,2.00
2023-02-25T04:59:54.035Z,1.60
2023-02-25T05:02:20.875Z,1.73
2023-02-25T05:04:49.077Z,1.90
2023-02-25T05:07:15.968Z,1.42
2023-02-25T05:09:42.825Z,1.55
2023-02-25T05:12:09.743Z,1.50
2023-02-25T05:14:37.569Z,1.83
2023-02-25T05:17:04.849Z,1.70
2023-02-25T05:19:31.738Z,1.60
2023-02-25T05:21:58.636Z,1.35
2023-02-25T05:24:25.527Z,1.70
2023-02-25T05:26:52.654Z,2.22
2023-02-25T05:29:19.682Z,1.50
2023-02-25T05:31:46.963Z,1.50
2023-02-25T05:34:14.023Z,1.90
2023-02-25T05:36:41.142Z,1.60
2023-02-25T05:39:08.008Z,1.42
2023-02-25T05:41:34.914Z,1.67
2023-02-25T05:44:01.832Z,1.67
2023-02-25T05:46:28.819Z,1.55
2023-02-25T05:48:55.769Z,2.15
2023-02-25T05:51:25.441Z,2.05
2023-02-25T05:53:52.574Z,1.70
2023-02-25T05:56:21.570Z,1.63
2023-02-25T05:58:48.789Z,2.22
2023-02-25T06:01:20.123Z,2.00
2023-02-25T06:03:47.794Z,2.08
2023-02-25T06:06:15.739Z,1.92
2023-02-25T06:08:44.462Z,1.80
2023-02-25T06:11:14.380Z,2.03
2023-02-25T06:13:42.077Z,1.80
2023-02-25T06:16:08.970Z,2.13
2023-02-25T06:18:37.171Z,2.28
2023-02-25T06:21:08.249Z,2.10
2023-02-25T06:23:35.674Z,2.30
2023-02-25T06:26:02.866Z,2.17
2023-02-25T06:28:29.767Z,2.10
2023-02-25T06:30:56.811Z,2.17
2023-02-25T06:33:24.224Z,2.63
2023-02-25T06:35:55.379Z,2.42
2023-02-25T06:38:22.265Z,2.35
2023-02-25T06:40:49.703Z,2.28
2023-02-25T06:43:19.394Z,2.30
2023-02-25T06:45:46.318Z,2.70
2023-02-25T06:48:13.236Z,2.25
2023-02-25T06:50:40.409Z,2.45
2023-02-25T06:53:07.972Z,2.33
2023-02-25T06:55:34.853Z,2.35
2023-02-25T06:58:01.799Z,2.28
2023-02-25T07:00:28.749Z,2.60
2023-02-25T07:02:55.716Z,2.35
2023-02-25T07:05:22.543Z,2.30
2023-02-25T07:07:49.448Z,2.20
2023-02-25T07:10:16.462Z,2.30
2023-02-25T07:12:43.356Z,2.47
2023-02-25T07:15:10.423Z,2.08
2023-02-25T07:17:37.654Z,1.85
2023-02-25T07:20:04.811Z,1.90
2023-02-25T07:22:31.800Z,2.03
2023-02-25T07:24:58.725Z,1.60
2023-02-25T07:27:25.671Z,1.88
2023-02-25T07:29:52.706Z,1.90
2023-02-25T07:32:19.748Z,1.80
2023-02-25T07:34:46.821Z,1.88
2023-02-25T07:37:13.706Z,2.08
2023-02-25T07:39:40.674Z,2.35
2023-02-25T07:42:07.646Z,2.35
2023-02-25T07:44:36.326Z,1.98
2023-02-25T07:47:03.191Z,1.65
2023-02-25T07:49:30.174Z,2.13
2023-02-25T07:51:57.074Z,1.85
2023-02-25T07:54:23.980Z,2.22
2023-02-25T07:56:51.515Z,2.25
2023-02-25T07:59:19.252Z,1.67
2023-02-25T08:01:46.219Z,1.67
2023-02-25T08:04:13.231Z,1.77
2023-02-25T08:06:40.787Z,1.90
2023-02-25T08:09:08.170Z,2.05
2023-02-25T08:11:35.153Z,1.65
2023-02-25T08:14:02.148Z,1.73
2023-02-25T08:16:29.144Z,2.00
2023-02-25T08:18:56.076Z,1.33
2023-02-25T08:21:23.860Z,1.55
2023-02-25T08:23:52.189Z,1.48
2023-02-25T08:26:19.243Z,2.00
2023-02-25T08:28:46.491Z,2.13
2023-02-25T08:31:13.643Z,2.47
2023-02-25T08:33:42.011Z,2.88
2023-02-25T08:36:36.246Z,1.80
2023-02-25T08:39:03.254Z,1.73
2023-02-25T08:41:30.152Z,2.03
2023-02-25T08:43:58.044Z,2.10
2023-02-25T08:46:26.898Z,1.30
2023-02-25T08:48:54.154Z,2.13
2023-02-25T08:51:22.613Z,2.00
2023-02-25T08:53:49.768Z,2.40
2023-02-25T08:56:16.864Z,2.38
2023-02-25T08:58:43.914Z,2.13
2023-02-25T09:01:15.370Z,2.13
2023-02-25T09:03:51.924Z,1.83
2023-02-25T09:06:23.604Z,2.58
2023-02-25T09:08:51.187Z,2.28
2023-02-25T09:11:18.445Z,1.83
2023-02-25T09:13:45.729Z,2.45
2023-02-25T09:16:17.668Z,2.20
2023-02-25T09:18:45.873Z,2.97
2023-02-25T09:21:13.182Z,2.83
2023-02-25T09:23:40.476Z,2.90
2023-02-25T09:26:07.439Z,2.78
2023-02-25T09:28:34.639Z,3.38
2023-02-25T09:31:02.697Z,3.00
2023-02-25T09:33:31.312Z,3.15
2023-02-25T09:36:06.165Z,3.25
2023-02-25T09:38:33.130Z,2.95
2023-02-25T09:41:00.011Z,3.33
2023-02-25T09:43:35.237Z,2.90
2023-02-25T09:46:07.781Z,2.30
2023-02-25T09:48:36.110Z,2.75
2023-02-25T09:51:22.690Z,2.53
2023-02-25T09:54:01.749Z,2.17
2023-02-25T09:56:28.766Z,2.42
2023-02-25T09:58:58.089Z,2.47
2023-02-25T10:01:27.703Z,2.07
2023-02-25T10:04:23.540Z,2.38
2023-02-25T10:06:51.567Z,1.98
2023-02-25T10:09:24.140Z,1.90
2023-02-25T10:12:05.452Z,2.28
2023-02-25T10:14:51.709Z,2.55
2023-02-25T10:17:44.380Z,1.98
2023-02-25T10:20:18.469Z,2.35
2023-02-25T10:23:06.963Z,2.15
2023-02-25T10:25:36.527Z,1.80
2023-02-25T10:28:07.609Z,2.10
2023-02-25T10:31:07.497Z,2.00
2023-02-25T10:33:37.088Z,1.85
2023-02-25T10:36:33.205Z,1.60
2023-02-25T10:39:00.164Z,1.52
2023-02-25T10:41:27.188Z,1.30
2023-02-25T10:43:55.063Z,1.60
2023-02-25T10:46:59.038Z,1.33
2023-02-25T10:49:27.261Z,1.10
2023-02-25T10:52:05.605Z,2.03
2023-02-25T10:54:34.193Z,1.27
2023-02-25T10:57:02.524Z,1.92
2023-02-25T10:59:37.232Z,1.25
2023-02-25T11:02:21.393Z,2.00
2023-02-25T11:04:48.539Z,1.50
2023-02-25T11:07:41.780Z,1.48
2023-02-25T11:10:20.086Z,1.70
2023-02-25T11:12:53.141Z,1.60
2023-02-25T11:15:46.435Z,1.40
2023-02-25T11:18:29.683Z,1.80
2023-02-25T11:20:58.177Z,1.65
2023-02-25T11:23:30.346Z,1.20
2023-02-25T11:25:57.630Z,1.58
2023-02-25T11:28:30.642Z,1.40
2023-02-25T11:31:17.144Z,1.63
2023-02-25T11:33:46.024Z,1.20
2023-02-25T11:36:13.060Z,1.40
2023-02-25T11:38:41.712Z,1.40
2023-02-25T11:41:21.242Z,1.45
2023-02-25T11:43:48.935Z,1.02
2023-02-25T11:46:24.230Z,1.30
2023-02-25T11:49:16.683Z,0.90
2023-02-25T11:51:57.545Z,1.20
2023-02-25T11:54:27.221Z,1.35
2023-02-25T11:57:23.231Z,1.10
2023-02-25T11:59:56.064Z,1.25
2023-02-25T12:02:24.382Z,1.42
2023-02-25T12:05:09.319Z,1.08
2023-02-25T12:07:59.970Z,1.23
2023-02-25T12:11:08.993Z,0.90
2023-02-25T12:13:52.909Z,1.00
2023-02-25T12:16:38.739Z,1.40
2023-02-25T12:19:32.860Z,1.30
2023-02-25T12:22:21.090Z,1.35
2023-02-25T12:24:51.043Z,1.30
2023-02-25T12:27:32.249Z,1.50
2023-02-25T12:30:39.685Z,1.73
2023-02-25T12:33:29.764Z,0.90
2023-02-25T12:36:04.017Z,1.33
2023-02-25T12:38:32.903Z,0.85
2023-02-25T12:41:31.907Z,1.10
2023-02-25T12:44:31.578Z,1.20
2023-02-25T12:47:14.585Z,0.88
2023-02-25T12:49:56.797Z,1.10
2023-02-25T12:52:38.675Z,1.30
2023-02-25T12:55:19.623Z,1.70
2023-02-25T12:58:08.267Z,1.52
2023-02-25T13:01:03.218Z,1.65
2023-02-25T13:03:52.261Z,1.48
2023-02-25T13:06:39.810Z,1.50
2023-02-25T13:09:16.188Z,1.08
2023-02-25T13:12:11.554Z,1.38
2023-02-25T13:15:05.652Z,1.73
2023-02-25T13:17:38.064Z,1.50
2023-02-25T13:20:07.940Z,1.40
2023-02-25T13:22:57.640Z,1.85
2023-02-25T13:25:56.486Z,1.40
2023-02-25T13:28:50.407Z,1.40
2023-02-25T13:31:37.799Z,1.20
2023-02-25T13:34:26.825Z,1.70
2023-02-25T13:37:17.493Z,1.70
2023-02-25T13:39:44.423Z,1.25
2023-02-25T13:42:30.128Z,0.90
2023-02-25T13:45:18.754Z,1.73
2023-02-25T13:47:54.517Z,1.27
2023-02-25T13:50:49.022Z,1.00
2023-02-25T13:53:46.988Z,1.52
2023-02-25T13:56:32.650Z,3.17
2023-02-25T13:59:02.448Z,0.93
2023-02-25T14:01:32.225Z,1.88
2023-02-25T14:04:30.140Z,1.40
2023-02-25T14:07:25.499Z,1.33
2023-02-25T14:09:58.308Z,1.30
2023-02-25T14:12:48.645Z,1.52
2023-02-25T14:15:20.488Z,1.73
2023-02-25T14:17:53.808Z,1.20
2023-02-25T14:20:45.505Z,1.50
2023-02-25T14:23:36.093Z,1.42
2023-02-25T14:26:22.873Z,1.45
2023-02-25T14:29:09.278Z,1.05
2023-02-25T14:31:50.700Z,1.45
2023-02-25T14:34:40.133Z,1.17
2023-02-25T14:37:20.008Z,1.05
2023-02-25T14:39:54.929Z,1.10
2023-02-25T14:42:32.339Z,0.75
2023-02-25T14:45:09.458Z,1.10
2023-02-25T14:47:46.467Z,1.33
2023-02-25T14:50:38.466Z,1.58
2023-02-25T14:53:42.844Z,1.08
2023-02-25T14:56:47.453Z,1.38
2023-02-25T14:59:51.428Z,1.15
2023-02-25T15:02:45.260Z,1.10
2023-02-25T15:05:32.439Z,1.20
2023-02-25T15:08:16.400Z,1.05
2023-02-25T15:10:52.805Z,1.40
2023-02-25T15:13:41.028Z,1.00
2023-02-25T15:16:21.059Z,1.20
2023-02-25T15:21:39.082Z,1.88
2023-02-25T15:24:40.952Z,1.35
2023-02-25T15:27:35.260Z,1.20
2023-02-25T15:30:06.820Z,1.25
2023-02-25T15:32:59.911Z,1.00
2023-02-25T15:35:36.088Z,1.23
2023-02-25T15:38:07.289Z,2.00
2023-02-25T15:40:34.225Z,1.30
2023-02-25T15:43:10.353Z,1.08
2023-02-25T15:45:38.638Z,0.90
2023-02-25T15:48:08.350Z,1.40
2023-02-25T15:50:44.107Z,1.10
2023-02-25T15:53:24.711Z,1.27
2023-02-25T15:56:14.394Z,1.20
2023-02-25T15:58:51.756Z,1.10
2023-02-25T16:01:22.013Z,0.98
2023-02-25T16:03:49.171Z,1.55
2023-02-25T16:06:29.509Z,1.38
2023-02-25T16:09:07.873Z,1.45
2023-02-25T16:11:36.476Z,1.60
2023-02-25T16:14:27.948Z,1.10
2023-02-25T16:17:21.029Z,1.23
2023-02-25T16:19:52.287Z,1.20
2023-02-25T16:22:27.357Z,1.42
2023-02-25T16:24:55.998Z,1.23
2023-02-25T16:27:30.386Z,1.63
2023-02-25T16:30:01.030Z,1.23
2023-02-25T16:32:36.945Z,1.73
2023-02-25T16:35:27.762Z,0.90
2023-02-25T16:38:13.257Z,1.40
2023-02-25T16:40:41.026Z,1.20
2023-02-25T16:43:16.192Z,1.40
2023-02-25T16:45:45.244Z,1.40
2023-02-25T16:48:21.066Z,1.60
2023-02-25T16:50:48.390Z,1.60
2023-02-25T16:53:21.322Z,1.45
2023-02-25T16:55:48.232Z,1.35
2023-02-25T16:58:15.105Z,1.35
2023-02-25T17:01:02.395Z,1.23
2023-02-25T17:03:33.207Z,1.23
2023-02-25T17:06:08.090Z,1.80
2023-02-25T17:08:35.282Z,1.58
2023-02-25T17:11:02.573Z,1.30
2023-02-25T17:13:30.289Z,1.30
2023-02-25T17:15:57.221Z,1.83
2023-02-25T17:18:37.848Z,1.38
2023-02-25T17:21:24.382Z,1.33
2023-02-25T17:23:51.524Z,1.35
2023-02-25T17:26:18.796Z,0.93
2023-02-25T17:28:47.252Z,1.30
2023-02-25T17:31:16.717Z,1.42
2023-02-25T17:33:52.809Z,1.50
2023-02-25T17:36:35.247Z,1.25
2023-02-25T17:39:04.518Z,1.33
2023-02-25T17:41:31.438Z,1.80
2023-02-25T17:43:58.303Z,1.50
2023-02-25T17:46:38.355Z,1.42
2023-02-25T17:51:34.950Z,1.40
2023-02-25T17:54:09.526Z,1.35
2023-02-25T17:56:36.708Z,1.38
2023-02-25T17:59:27.928Z,1.25
2023-02-25T18:01:56.003Z,1.60
2023-02-25T18:04:40.666Z,1.10
2023-02-25T18:07:19.865Z,1.35
2023-02-25T18:09:46.807Z,2.00
2023-02-25T18:12:24.399Z,1.50
2023-02-25T18:14:58.655Z,1.25
2023-02-25T18:17:31.439Z,1.52
2023-02-25T18:20:00.626Z,1.58
2023-02-25T18:22:33.310Z,2.45
2023-02-25T18:25:02.060Z,1.52
2023-02-25T18:27:31.560Z,1.75
2023-02-25T18:30:08.480Z,2.78
2023-02-25T18:32:35.576Z,2.75
2023-02-25T18:35:02.573Z,1.88
2023-02-25T18:37:29.872Z,2.15
2023-02-25T18:39:56.770Z,1.75
2023-02-25T18:42:24.519Z,2.10
2023-02-25T18:44:52.179Z,1.55
2023-02-25T18:47:19.065Z,1.92
2023-02-25T18:49:45.980Z,1.17
2023-02-25T18:52:23.686Z,1.80
2023-02-25T18:54:50.690Z,1.67
2023-02-25T18:57:25.808Z,1.70
2023-02-25T18:59:52.974Z,1.80
2023-02-25T19:02:31.969Z,1.80
2023-02-25T19:04:59.176Z,2.45
2023-02-25T19:07:27.863Z,1.77
2023-02-25T19:09:55.902Z,1.65
2023-02-25T19:12:23.837Z,1.80
2023-02-25T19:14:59.823Z,1.50
2023-02-25T19:17:27.789Z,1.63
2023-02-25T19:19:55.033Z,2.03
2023-02-25T19:22:21.974Z,1.58
2023-02-25T19:24:48.946Z,1.92
2023-02-25T19:27:21.940Z,2.15
2023-02-25T19:29:49.969Z,1.98
2023-02-25T19:32:17.366Z,1.90
2023-02-25T19:34:45.220Z,1.73
2023-02-25T19:37:12.365Z,2.00
2023-02-25T19:39:39.412Z,2.00
2023-02-25T19:42:06.585Z,1.77
2023-02-25T19:44:33.594Z,2.20
2023-02-25T19:47:00.825Z,2.05
2023-02-25T19:49:28.148Z,1.70
2023-02-25T19:51:55.377Z,2.08
2023-02-25T19:54:23.371Z,1.95
2023-02-25T19:56:51.323Z,2.00
2023-02-25T19:59:18.286Z,2.50
2023-02-25T20:01:45.157Z,2.03
2023-02-25T20:04:12.024Z,2.00
2023-02-25T20:06:38.872Z,1.83
2023-02-25T20:09:07.013Z,1.92
2023-02-25T20:11:34.030Z,2.45
2023-02-25T20:14:01.626Z,1.50
2023-02-25T20:16:28.669Z,2.63
2023-02-25T20:18:58.409Z,1.80
2023-02-25T20:21:26.284Z,2.38
2023-02-25T20:23:53.434Z,2.42
2023-02-25T20:26:23.112Z,2.08
2023-02-25T20:28:52.075Z,1.70
2023-02-25T20:31:19.027Z,2.42
2023-02-25T20:33:48.291Z,2.67
2023-02-25T20:36:27.958Z,2.00
2023-02-25T20:38:58.601Z,2.17
2023-02-25T20:41:26.016Z,2.45
2023-02-25T20:43:53.000Z,2.05
2023-02-25T20:46:28.041Z,2.25
2023-02-25T20:48:55.669Z,2.95
2023-02-25T20:51:22.761Z,2.17
2023-02-25T20:53:49.889Z,3.20
2023-02-25T20:56:19.892Z,2.13
2023-02-25T20:58:46.818Z,2.10
2023-02-25T21:01:13.758Z,2.22
2023-02-25T21:03:40.670Z,2.35
2023-02-25T21:06:07.952Z,1.60
2023-02-25T21:08:35.117Z,1.85
2023-02-25T21:11:01.983Z,2.50
2023-02-25T21:13:28.845Z,2.28
2023-02-25T21:16:00.723Z,2.22
2023-02-25T21:18:27.937Z,2.03
2023-02-25T21:21:02.806Z,1.77
2023-02-25T21:23:31.099Z,1.98
2023-02-25T21:25:58.080Z,1.95
2023-02-25T21:28:25.012Z,1.67
2023-02-25T21:30:52.136Z,2.40
2023-02-25T21:33:19.065Z,2.20
2023-02-25T21:35:51.183Z,1.75
2023-02-25T21:38:18.634Z,2.28
2023-02-25T21:40:45.678Z,1.90
2023-02-25T21:43:12.602Z,2.13
2023-02-25T21:45:39.782Z,1.67
2023-02-25T21:48:06.832Z,1.83
2023-02-25T21:50:33.841Z,3.03
2023-02-25T21:53:01.134Z,1.77
2023-02-25T21:55:28.204Z,2.03
2023-02-25T21:57:55.325Z,1.95
2023-02-25T22:00:22.662Z,2.17
2023-02-25T22:02:49.572Z,2.15
2023-02-25T22:05:16.570Z,2.60
2023-02-25T22:07:43.455Z,2.80
2023-02-25T22:10:11.196Z,1.95
2023-02-25T22:12:38.096Z,1.98
2023-02-25T22:15:05.493Z,1.65
2023-02-25T22:17:32.490Z,1.85
2023-02-25T22:19:59.387Z,1.20
2023-02-25T22:22:26.310Z,1.63
2023-02-25T22:24:53.185Z,2.15
2023-02-25T22:27:20.181Z,1.98
2023-02-25T22:29:47.096Z,1.80
2023-02-25T22:32:14.196Z,1.60
2023-02-25T22:34:41.084Z,2.05
2023-02-25T22:37:08.021Z,1.20
2023-02-25T22:39:34.884Z,2.30
2023-02-25T22:42:01.796Z,1.50
2023-02-25T22:44:28.768Z,2.53
2023-02-25T22:46:55.707Z,1.58
2023-02-25T22:49:22.867Z,1.35
2023-02-25T22:51:50.517Z,1.90
2023-02-25T22:54:18.617Z,2.22
2023-02-25T22:56:46.345Z,2.00
2023-02-25T22:59:13.847Z,1.83
2023-02-25T23:01:40.877Z,2.63
2023-02-25T23:04:10.429Z,1.90
2023-02-25T23:06:44.063Z,1.65
2023-02-25T23:09:14.867Z,1.50
2023-02-25T23:14:09.187Z,1.67
2023-02-25T23:16:45.224Z,1.90
2023-02-25T23:19:15.696Z,1.40
2023-02-25T23:21:42.730Z,2.10
2023-02-25T23:24:10.041Z,1.63
2023-02-25T23:26:39.211Z,1.55
2023-02-25T23:29:06.951Z,1.50
2023-02-25T23:31:35.494Z,2.10
2023-02-25T23:34:04.788Z,1.77
2023-02-25T23:36:32.020Z,1.58
2023-02-25T23:39:00.398Z,1.60
2023-02-25T23:41:28.037Z,1.50
2023-02-25T23:43:55.680Z,1.33
2023-02-25T23:46:23.674Z,1.80
2023-02-25T23:48:55.878Z,1.70
2023-02-25T23:51:22.778Z,2.00
2023-02-25T23:53:53.155Z,1.70
2023-02-25T23:56:20.065Z,1.73
2023-02-25T23:58:49.711Z,1.70
